Terminal Aerodrome Forecast
Issued by NWS Northern Indiana

Home | Current Version | Previous Version | Text Only | Print | Product List | Glossary Off
Versions: 1 2 3 4 5 6 7 8 9 10 11 12 13 14 15

000
FTUS43 KIWX 291400 AAA
TAFFWA
TAF AMD
KFWA 291403Z 2914/3012 27012G18KT P6SM BKN035
     FM292300 30007KT P6SM BKN040
     FM300500 28003KT P6SM SCT040=

USA.gov is the U.S. government's official web portal to all federal, state and local government web resources and services.